Time;durP1;ratioP1;P1;durP2;ratioP2;P2;SDS_P1;SDS_P2;PMS_P1;PMS_P2;Temp;Humidity;BMP_temperature;BMP_pressure;BME280_temperature;BME280_humidity;BME280_pressure;Samples;Min_cycle;Max_cycle;Signal;HPM_P1;HPM_P2
2022/04/19 00:00:44;;;;;;;5.78;2.55;;;;;;;;;;5045502;28;20028;-66
2022/04/19 00:03:11;;;;;;;2.90;2.00;;;;;;;;;;5039139;28;20044;-66
2022/04/19 00:05:38;;;;;;;3.45;2.15;;;;;;;;;;5042822;28;20036;-66
2022/04/19 00:08:04;;;;;;;4.15;2.00;;;;;;;;;;5044683;28;20451;-65
2022/04/19 00:10:30;;;;;;;4.63;2.47;;;;;;;;;;5044408;28;20299;-64
2022/04/19 00:12:57;;;;;;;10.23;2.70;;;;;;;;;;5041875;28;20070;-65
2022/04/19 00:15:24;;;;;;;3.67;2.38;;;;;;;;;;5047681;28;20033;-65
2022/04/19 00:17:50;;;;;;;3.45;2.22;;;;;;;;;;5045030;28;20021;-66
2022/04/19 00:20:16;;;;;;;4.82;2.50;;;;;;;;;;5043380;28;20029;-66
2022/04/19 00:22:42;;;;;;;2.72;1.90;;;;;;;;;;5044223;28;20025;-65
2022/04/19 00:25:08;;;;;;;3.03;2.03;;;;;;;;;;5045994;28;20037;-66
2022/04/19 00:27:35;;;;;;;2.60;2.17;;;;;;;;;;5045390;28;20075;-66
2022/04/19 00:30:01;;;;;;;4.07;2.42;;;;;;;;;;5038508;28;20358;-65
2022/04/19 00:32:27;;;;;;;4.68;2.47;;;;;;;;;;5044561;28;20564;-65
2022/04/19 00:34:53;;;;;;;4.15;2.28;;;;;;;;;;5045133;28;20044;-65
2022/04/19 00:37:19;;;;;;;3.13;2.05;;;;;;;;;;5044824;28;20026;-64
2022/04/19 00:39:46;;;;;;;4.20;2.17;;;;;;;;;;5040219;28;20025;-65
2022/04/19 00:42:12;;;;;;;9.18;2.55;;;;;;;;;;5047388;28;20060;-66
2022/04/19 00:44:39;;;;;;;6.22;2.45;;;;;;;;;;5050011;28;20025;-65
2022/04/19 00:47:09;;;;;;;5.68;2.35;;;;;;;;;;5046376;28;20049;-64
2022/04/19 00:49:38;;;;;;;3.95;2.28;;;;;;;;;;5048760;28;20513;-65
2022/04/19 00:52:05;;;;;;;5.47;2.00;;;;;;;;;;5046047;28;20120;-65
2022/04/19 00:54:31;;;;;;;2.90;1.85;;;;;;;;;;5046523;28;20030;-66
2022/04/19 00:56:58;;;;;;;4.97;2.50;;;;;;;;;;5046320;28;20017;-65
2022/04/19 00:59:24;;;;;;;4.80;2.42;;;;;;;;;;5048763;28;20028;-65
2022/04/19 01:01:51;;;;;;;5.15;2.05;;;;;;;;;;5047209;28;20021;-65
2022/04/19 01:04:17;;;;;;;4.10;2.35;;;;;;;;;;5044087;28;20033;-65
2022/04/19 01:06:43;;;;;;;5.53;2.60;;;;;;;;;;5049262;28;20039;-66
2022/04/19 01:09:09;;;;;;;3.40;2.05;;;;;;;;;;5050182;28;20208;-65
2022/04/19 01:14:20;;;;;;;2.80;2.00;;;;;;;;;;5046049;28;20437;-65
2022/04/19 01:16:46;;;;;;;3.15;2.13;;;;;;;;;;5049165;28;20021;-65
2022/04/19 01:19:15;;;;;;;5.88;2.42;;;;;;;;;;5051223;28;20432;-66
2022/04/19 01:21:48;;;;;;;4.68;2.50;;;;;;;;;;5046385;28;20025;-67
2022/04/19 01:24:18;;;;;;;4.70;2.25;;;;;;;;;;5050303;28;20512;-65
2022/04/19 01:26:44;;;;;;;2.42;1.70;;;;;;;;;;5048476;28;20029;-65
2022/04/19 01:29:11;;;;;;;6.97;2.15;;;;;;;;;;5044712;28;20021;-66
2022/04/19 01:31:37;;;;;;;5.40;2.28;;;;;;;;;;5049756;28;20116;-65
2022/04/19 01:34:03;;;;;;;4.50;2.35;;;;;;;;;;5047832;28;20158;-66
2022/04/19 01:36:29;;;;;;;6.82;2.65;;;;;;;;;;5044421;28;20033;-65
2022/04/19 01:38:55;;;;;;;4.95;2.38;;;;;;;;;;5040126;28;20028;-66
2022/04/19 01:41:22;;;;;;;6.88;2.50;;;;;;;;;;5049280;28;20438;-65
2022/04/19 01:43:48;;;;;;;5.93;2.42;;;;;;;;;;5045850;28;20031;-65
2022/04/19 01:46:17;;;;;;;3.20;2.00;;;;;;;;;;5040863;28;20131;-66
2022/04/19 01:48:43;;;;;;;5.45;2.40;;;;;;;;;;5048033;28;20094;-65
2022/04/19 01:51:09;;;;;;;3.90;2.40;;;;;;;;;;5048878;28;20083;-65
2022/04/19 01:53:35;;;;;;;5.53;2.53;;;;;;;;;;5044209;28;20463;-65
2022/04/19 01:56:01;;;;;;;4.30;2.22;;;;;;;;;;5046226;28;20040;-66
2022/04/19 01:58:27;;;;;;;5.05;2.10;;;;;;;;;;5048711;28;20375;-64
2022/04/19 02:00:53;;;;;;;5.47;2.30;;;;;;;;;;5048210;28;20032;-65
2022/04/19 02:03:19;;;;;;;4.28;2.13;;;;;;;;;;5040242;28;20018;-66
2022/04/19 02:05:46;;;;;;;4.82;2.10;;;;;;;;;;5049935;28;20029;-66
2022/04/19 02:08:12;;;;;;;3.65;2.28;;;;;;;;;;5049489;28;20438;-65
2022/04/19 02:10:38;;;;;;;3.90;2.03;;;;;;;;;;5045510;28;20040;-65
2022/04/19 02:13:04;;;;;;;4.82;2.15;;;;;;;;;;5046991;28;20040;-66
2022/04/19 02:15:31;;;;;;;5.20;2.10;;;;;;;;;;5050561;28;20035;-66
2022/04/19 02:17:57;;;;;;;5.57;2.40;;;;;;;;;;5051231;28;20048;-66
2022/04/19 02:20:23;;;;;;;5.70;2.63;;;;;;;;;;5051957;28;20072;-66
2022/04/19 02:22:49;;;;;;;7.43;2.33;;;;;;;;;;5055224;28;20482;-65
2022/04/19 02:25:16;;;;;;;5.00;2.42;;;;;;;;;;5052322;28;20075;-65
2022/04/19 02:27:42;;;;;;;3.72;2.38;;;;;;;;;;5041996;28;20104;-66
2022/04/19 02:30:13;;;;;;;5.88;2.33;;;;;;;;;;5040224;28;20096;-65
2022/04/19 02:32:39;;;;;;;5.43;1.88;;;;;;;;;;5047633;28;20028;-66
2022/04/19 02:35:06;;;;;;;4.50;2.20;;;;;;;;;;5059147;28;20060;-65
2022/04/19 02:37:32;;;;;;;5.35;2.53;;;;;;;;;;5049788;28;20167;-66
2022/04/19 02:39:58;;;;;;;4.20;2.33;;;;;;;;;;5019719;28;20044;-66
2022/04/19 02:42:25;;;;;;;7.03;2.75;;;;;;;;;;5045683;28;20398;-66
2022/04/19 02:44:51;;;;;;;4.95;2.20;;;;;;;;;;5042517;28;20108;-66
2022/04/19 02:47:17;;;;;;;5.07;2.40;;;;;;;;;;5046439;28;20044;-67
2022/04/19 02:49:46;;;;;;;3.90;2.35;;;;;;;;;;5044104;28;20025;-66
2022/04/19 02:52:12;;;;;;;3.42;2.33;;;;;;;;;;5045666;28;20086;-65
2022/04/19 02:54:38;;;;;;;5.50;2.70;;;;;;;;;;5039981;28;20120;-65
2022/04/19 02:57:04;;;;;;;5.10;2.50;;;;;;;;;;5048079;28;20160;-66
2022/04/19 02:59:31;;;;;;;3.45;2.33;;;;;;;;;;5046300;28;20033;-66
2022/04/19 03:01:57;;;;;;;4.22;2.45;;;;;;;;;;5044722;28;20020;-66
2022/04/19 03:04:23;;;;;;;7.53;2.63;;;;;;;;;;5044887;28;20032;-65
2022/04/19 03:06:49;;;;;;;8.95;2.40;;;;;;;;;;5044998;28;20393;-66
2022/04/19 03:09:15;;;;;;;9.80;2.47;;;;;;;;;;5045440;28;20021;-66
2022/04/19 03:11:41;;;;;;;4.30;2.60;;;;;;;;;;5042501;28;20021;-67
2022/04/19 03:14:07;;;;;;;4.22;2.33;;;;;;;;;;5048328;28;20106;-66
2022/04/19 03:16:33;;;;;;;4.95;2.60;;;;;;;;;;5041341;28;20386;-65
2022/04/19 03:18:59;;;;;;;5.07;2.65;;;;;;;;;;5050503;28;20041;-66
2022/04/19 03:21:25;;;;;;;5.07;2.22;;;;;;;;;;5044737;28;20040;-66
2022/04/19 03:29:21;;;;;;;7.40;2.90;;;;;;;;;;5041412;28;20044;-66
2022/04/19 03:31:47;;;;;;;6.03;2.42;;;;;;;;;;5046235;28;20451;-65
2022/04/19 03:34:13;;;;;;;5.88;2.38;;;;;;;;;;5043149;28;20072;-66
2022/04/19 03:36:39;;;;;;;6.13;2.22;;;;;;;;;;5041279;28;20086;-65
2022/04/19 03:39:05;;;;;;;8.15;2.83;;;;;;;;;;5043093;28;20029;-65
2022/04/19 03:41:50;;;;;;;3.08;2.05;;;;;;;;;;5048530;28;20611;-66
2022/04/19 07:27:13;;;;;;;6.82;3.15;;;;;;;;;;5017108;28;20025;-70
2022/04/19 07:29:40;;;;;;;5.68;2.80;;;;;;;;;;5044052;28;20032;-70
2022/04/19 07:32:07;;;;;;;13.68;3.45;;;;;;;;;;5037243;28;20013;-70
2022/04/19 07:34:33;;;;;;;11.98;3.53;;;;;;;;;;5045102;28;20037;-71
2022/04/19 07:36:59;;;;;;;9.15;3.40;;;;;;;;;;5046388;28;20025;-71
2022/04/19 07:39:26;;;;;;;9.48;3.58;;;;;;;;;;5045253;28;20029;-71
2022/04/19 07:41:54;;;;;;;4.32;2.63;;;;;;;;;;5045278;28;20111;-71
2022/04/19 07:44:20;;;;;;;8.77;3.83;;;;;;;;;;5047991;28;20454;-70
2022/04/19 07:46:46;;;;;;;8.80;2.80;;;;;;;;;;5049379;28;20031;-71
2022/04/19 07:49:12;;;;;;;6.78;3.30;;;;;;;;;;5048939;28;20017;-71
2022/04/19 07:51:38;;;;;;;8.38;3.08;;;;;;;;;;5048718;28;20017;-71
2022/04/19 07:54:04;;;;;;;6.72;2.50;;;;;;;;;;5049480;28;20485;-70
2022/04/19 07:56:30;;;;;;;7.28;3.42;;;;;;;;;;5050003;28;20025;-71
2022/04/19 07:58:56;;;;;;;13.38;4.32;;;;;;;;;;5052561;28;20099;-71
2022/04/19 08:01:23;;;;;;;12.45;3.50;;;;;;;;;;5042778;28;20466;-71
2022/04/19 08:19:15;;;;;;;4.72;2.42;;;;;;;;;;4959226;28;20552;-71
2022/04/19 08:21:41;;;;;;;3.33;1.80;;;;;;;;;;4951841;28;20062;-71
2022/04/19 08:24:07;;;;;;;5.28;2.42;;;;;;;;;;4950217;28;20039;-71
2022/04/19 08:26:34;;;;;;;5.13;2.65;;;;;;;;;;4933806;29;20023;-71
2022/04/19 08:29:00;;;;;;;4.43;2.42;;;;;;;;;;4934293;29;20039;-71
2022/04/19 08:31:27;;;;;;;5.00;2.08;;;;;;;;;;4929978;29;20035;-71
2022/04/19 08:33:53;;;;;;;6.20;2.20;;;;;;;;;;4946025;28;20039;-71
2022/04/19 08:36:19;;;;;;;4.47;2.60;;;;;;;;;;4948408;28;20023;-71
2022/04/19 08:38:47;;;;;;;9.60;2.55;;;;;;;;;;4948114;28;20114;-72
2022/04/19 08:41:15;;;;;;;4.25;2.10;;;;;;;;;;4947313;28;20027;-71
2022/04/19 08:43:41;;;;;;;6.10;2.75;;;;;;;;;;4995258;28;20040;-71
2022/04/19 08:46:07;;;;;;;4.22;1.95;;;;;;;;;;5046762;28;20021;-71
2022/04/19 08:48:35;;;;;;;2.78;2.00;;;;;;;;;;5043187;28;20010;-71
2022/04/19 08:51:03;;;;;;;3.25;1.95;;;;;;;;;;5042114;28;20034;-71
2022/04/19 08:59:02;;;;;;;2.15;1.88;;;;;;;;;;5041635;28;20090;-71
2022/04/19 09:01:29;;;;;;;3.75;2.00;;;;;;;;;;5027471;28;20108;-70
2022/04/19 09:03:56;;;;;;;3.90;1.63;;;;;;;;;;5048314;28;20024;-72
2022/04/19 09:06:22;;;;;;;2.78;1.80;;;;;;;;;;5051892;28;20024;-71
2022/04/19 09:09:17;;;;;;;8.27;1.63;;;;;;;;;;5049293;28;20100;-72
2022/04/19 09:11:43;;;;;;;3.67;1.70;;;;;;;;;;4965586;28;20084;-72
2022/04/19 09:14:09;;;;;;;5.28;2.05;;;;;;;;;;4968258;28;20062;-71
2022/04/19 09:16:35;;;;;;;3.33;1.83;;;;;;;;;;4953823;28;20073;-71
2022/04/19 09:19:01;;;;;;;4.20;1.90;;;;;;;;;;4960597;28;20081;-71
2022/04/19 09:21:40;;;;;;;3.10;2.15;;;;;;;;;;4966858;28;20035;-71
2022/04/19 09:24:19;;;;;;;3.25;1.80;;;;;;;;;;4965912;28;20184;-71
2022/04/19 09:26:46;;;;;;;2.80;1.40;;;;;;;;;;4967792;28;20409;-71
2022/04/19 09:29:22;;;;;;;3.78;1.98;;;;;;;;;;4967745;28;20073;-71
2022/04/19 09:31:52;;;;;;;7.00;2.03;;;;;;;;;;4966897;28;20036;-71
2022/04/19 09:34:18;;;;;;;;;;;;;;;;;;4954363;28;20411;-71
2022/04/19 09:36:44;;;;;;;4.75;2.10;;;;;;;;;;4970108;28;20183;-71
2022/04/19 09:39:26;;;;;;;5.07;1.85;;;;;;;;;;4965830;28;20048;-71
2022/04/19 09:42:05;;;;;;;3.47;1.80;;;;;;;;;;4967375;28;20039;-71
2022/04/19 09:44:37;;;;;;;2.08;1.60;;;;;;;;;;4972242;28;20037;-71
2022/04/19 09:47:13;;;;;;;3.53;1.80;;;;;;;;;;4969054;28;20373;-71
2022/04/19 09:49:44;;;;;;;5.80;2.05;;;;;;;;;;5048778;28;20028;-71
2022/04/19 09:52:09;;;;;;;;;;;;;;;;;;5052150;28;20024;-71
2022/04/19 09:54:36;;;;;;;4.57;2.03;;;;;;;;;;5051122;28;19913;-72
2022/04/19 09:57:11;;;;;;;4.95;2.25;;;;;;;;;;5050058;28;20277;-71
2022/04/19 09:59:44;;;;;;;4.10;1.98;;;;;;;;;;5031294;28;20045;-70
2022/04/19 10:10:26;;;;;;;4.05;2.25;;;;;;;;;;5045619;28;20076;-71
2022/04/19 10:12:53;;;;;;;2.55;1.75;;;;;;;;;;5052378;28;20100;-72
2022/04/19 10:15:20;;;;;;;3.10;1.98;;;;;;;;;;5047559;28;20039;-71
2022/04/19 10:17:47;;;;;;;4.55;2.45;;;;;;;;;;5052074;28;20039;-71
2022/04/19 10:20:14;;;;;;;3.63;1.92;;;;;;;;;;5052135;28;20025;-70
2022/04/19 10:22:47;;;;;;;4.22;2.47;;;;;;;;;;5051529;28;20501;-71
2022/04/19 10:25:17;;;;;;;4.32;2.13;;;;;;;;;;5048955;28;20029;-72
2022/04/19 10:27:44;;;;;;;4.10;2.42;;;;;;;;;;5033415;28;20032;-71
2022/04/19 10:30:18;;;;;;;4.47;1.98;;;;;;;;;;5046779;28;20082;-71
2022/04/19 10:32:44;;;;;;;4.75;2.10;;;;;;;;;;5058704;28;20028;-71
2022/04/19 10:35:10;;;;;;;3.58;2.22;;;;;;;;;;5057989;28;20056;-71
2022/04/19 10:37:36;;;;;;;6.47;2.13;;;;;;;;;;5030848;28;20104;-71
2022/04/19 10:40:02;;;;;;;2.33;1.55;;;;;;;;;;5049048;28;20116;-71
2022/04/19 10:42:37;;;;;;;5.70;2.22;;;;;;;;;;5048301;28;20535;-70
2022/04/19 10:45:12;;;;;;;3.45;1.98;;;;;;;;;;5045187;28;20113;-71
2022/04/19 10:47:54;;;;;;;3.13;1.80;;;;;;;;;;5044573;28;20093;-71
2022/04/19 10:50:39;;;;;;;3.80;2.22;;;;;;;;;;5044830;28;20214;-71
2022/04/19 10:53:09;;;;;;;3.65;1.95;;;;;;;;;;5045081;28;20029;-71
2022/04/19 10:55:39;;;;;;;3.28;2.08;;;;;;;;;;5041674;28;20025;-70
2022/04/19 11:00:43;;;;;;;3.42;2.20;;;;;;;;;;5044334;28;20014;-70
2022/04/19 11:03:12;;;;;;;3.47;2.13;;;;;;;;;;5048393;28;20064;-71
2022/04/19 11:05:44;;;;;;;5.13;2.50;;;;;;;;;;5046290;28;20122;-70
2022/04/19 11:08:25;;;;;;;4.03;2.25;;;;;;;;;;5048993;28;20102;-71
2022/04/19 11:10:51;;;;;;;2.58;1.75;;;;;;;;;;5051792;28;20033;-70
2022/04/19 11:13:17;;;;;;;5.28;2.50;;;;;;;;;;5045965;28;20031;-71
2022/04/19 11:15:44;;;;;;;1.92;1.25;;;;;;;;;;5049641;28;20092;-71
2022/04/19 11:18:22;;;;;;;5.82;2.65;;;;;;;;;;5047851;28;20057;-70
2022/04/19 11:20:52;;;;;;;3.83;2.22;;;;;;;;;;5054891;28;20013;-70
2022/04/19 11:23:19;;;;;;;3.63;2.00;;;;;;;;;;5049395;28;20033;-70
2022/04/19 11:25:46;;;;;;;2.33;1.80;;;;;;;;;;5048816;28;20021;-71
2022/04/19 11:28:12;;;;;;;4.50;1.73;;;;;;;;;;5050199;28;20032;-70
2022/04/19 11:30:43;;;;;;;4.57;2.03;;;;;;;;;;5041134;28;20025;-70
2022/04/19 11:33:09;;;;;;;2.60;1.70;;;;;;;;;;5048390;28;20026;-70
2022/04/19 11:35:35;;;;;;;2.97;1.70;;;;;;;;;;5049702;28;20510;-70
2022/04/19 11:38:05;;;;;;;2.85;1.65;;;;;;;;;;5045811;28;20521;-71
2022/04/19 11:48:49;;;;;;;2.80;1.77;;;;;;;;;;5050163;28;20116;-71
2022/04/19 11:51:16;;;;;;;2.72;1.73;;;;;;;;;;5044246;28;20040;-71
2022/04/19 11:53:43;;;;;;;3.95;1.90;;;;;;;;;;5029829;28;20045;-71
2022/04/19 11:56:10;;;;;;;2.55;1.73;;;;;;;;;;5049280;28;20032;-71
2022/04/19 11:58:39;;;;;;;2.70;1.40;;;;;;;;;;5053231;28;20045;-71
2022/04/19 12:01:14;;;;;;;8.45;2.42;;;;;;;;;;5031378;28;20071;-71
2022/04/19 12:03:42;;;;;;;2.70;2.00;;;;;;;;;;5045891;28;20458;-70
2022/04/19 12:06:12;;;;;;;2.95;1.95;;;;;;;;;;5050122;28;20044;-70
2022/04/19 12:08:44;;;;;;;5.40;2.22;;;;;;;;;;5032393;28;20119;-70
2022/04/19 12:11:27;;;;;;;4.82;2.45;;;;;;;;;;5030436;28;20056;-70
2022/04/19 12:13:53;;;;;;;3.03;1.98;;;;;;;;;;5048781;28;20691;-70
2022/04/19 12:16:29;;;;;;;3.42;2.08;;;;;;;;;;5031161;28;20381;-71
2022/04/19 12:18:56;;;;;;;3.28;1.92;;;;;;;;;;5030624;28;20021;-71
2022/04/19 12:21:36;;;;;;;3.45;2.08;;;;;;;;;;5043394;28;20470;-71
2022/04/19 12:24:03;;;;;;;5.97;1.83;;;;;;;;;;5046150;28;20120;-71
2022/04/19 12:26:29;;;;;;;3.03;1.90;;;;;;;;;;5047983;28;20040;-70
2022/04/19 12:29:06;;;;;;;1.92;1.65;;;;;;;;;;5024454;28;20112;-73
2022/04/19 12:31:38;;;;;;;2.28;1.30;;;;;;;;;;5029127;28;20021;-70
2022/04/19 12:34:04;;;;;;;2.08;1.50;;;;;;;;;;5048499;28;20064;-71
2022/04/19 12:36:43;;;;;;;2.20;1.50;;;;;;;;;;5028050;28;20256;-70
2022/04/19 12:39:09;;;;;;;1.88;1.27;;;;;;;;;;5048292;28;20025;-71
2022/04/19 12:41:36;;;;;;;2.60;1.75;;;;;;;;;;5051746;28;20033;-71
2022/04/19 12:44:02;;;;;;;2.78;1.85;;;;;;;;;;5052135;28;20024;-70
2022/04/19 12:46:30;;;;;;;5.35;2.10;;;;;;;;;;5034156;28;20025;-71
2022/04/19 12:48:57;;;;;;;4.85;1.90;;;;;;;;;;5055023;28;20075;-70
2022/04/19 12:51:26;;;;;;;2.00;1.60;;;;;;;;;;5052635;28;20025;-70
2022/04/19 12:54:08;;;;;;;3.90;1.55;;;;;;;;;;5046243;28;20041;-71
2022/04/19 12:59:38;;;;;;;2.20;1.50;;;;;;;;;;5052107;28;20428;-70
2022/04/19 13:02:05;;;;;;;3.78;2.17;;;;;;;;;;5034502;28;20544;-71
2022/04/19 13:04:31;;;;;;;3.53;1.67;;;;;;;;;;5051961;28;20381;-71
2022/04/19 13:12:27;;;;;;;2.90;2.00;;;;;;;;;;5044721;28;20036;-71
2022/04/19 13:14:54;;;;;;;4.57;1.55;;;;;;;;;;5033949;28;20025;-70
2022/04/19 13:17:20;;;;;;;3.15;2.05;;;;;;;;;;5058212;28;20878;-70
2022/04/19 13:19:46;;;;;;;3.47;1.85;;;;;;;;;;5052881;28;20060;-71
2022/04/19 13:22:13;;;;;;;1.80;1.55;;;;;;;;;;5053184;28;20029;-70
2022/04/19 13:24:39;;;;;;;2.42;1.65;;;;;;;;;;5035671;28;20086;-70
2022/04/19 13:27:09;;;;;;;3.15;1.65;;;;;;;;;;5051754;28;20036;-71
2022/04/19 13:29:36;;;;;;;3.97;1.92;;;;;;;;;;5052772;28;20017;-71
2022/04/19 13:32:02;;;;;;;7.28;1.77;;;;;;;;;;5054906;28;20025;-71
2022/04/19 13:34:28;;;;;;;2.30;1.45;;;;;;;;;;5037198;28;20029;-71
2022/04/19 13:36:58;;;;;;;3.75;1.90;;;;;;;;;;5054245;28;20375;-70
2022/04/19 13:39:25;;;;;;;5.28;1.88;;;;;;;;;;5039641;28;20016;-70
2022/04/19 13:41:51;;;;;;;3.08;1.95;;;;;;;;;;5060316;28;20021;-70
2022/04/19 13:44:17;;;;;;;2.85;1.65;;;;;;;;;;5052309;28;20343;-70
2022/04/19 13:46:46;;;;;;;2.58;1.90;;;;;;;;;;5035098;28;20025;-71
2022/04/19 13:49:13;;;;;;;3.78;1.73;;;;;;;;;;5048939;28;20640;-70
2022/04/19 13:51:41;;;;;;;2.72;1.90;;;;;;;;;;5049167;28;20029;-70
2022/04/19 13:54:10;;;;;;;3.67;1.83;;;;;;;;;;5040733;28;20041;-70
2022/04/19 13:56:36;;;;;;;3.83;2.15;;;;;;;;;;5049620;28;20021;-71
2022/04/19 13:59:02;;;;;;;2.78;1.70;;;;;;;;;;5046344;28;20060;-70
2022/04/19 14:01:30;;;;;;;2.22;1.73;;;;;;;;;;5053914;28;20087;-70
2022/04/19 14:03:56;;;;;;;5.53;2.10;;;;;;;;;;5033146;28;20462;-70
2022/04/19 14:06:22;;;;;;;2.65;1.77;;;;;;;;;;5034959;28;20037;-70
2022/04/19 14:08:48;;;;;;;2.63;1.80;;;;;;;;;;5054552;28;20025;-70
2022/04/19 14:11:14;;;;;;;2.60;1.90;;;;;;;;;;5059898;28;20097;-71
2022/04/19 14:13:40;;;;;;;4.45;1.80;;;;;;;;;;5034247;28;20076;-70
2022/04/19 14:16:18;;;;;;;3.05;1.75;;;;;;;;;;5053781;28;20026;-71
2022/04/19 14:18:44;;;;;;;5.15;2.55;;;;;;;;;;5049836;28;20032;-70
2022/04/19 14:21:11;;;;;;;4.25;2.20;;;;;;;;;;5048507;28;20068;-70
2022/04/19 14:23:37;;;;;;;2.95;2.25;;;;;;;;;;5045401;28;20024;-71
2022/04/19 14:26:03;;;;;;;3.35;2.42;;;;;;;;;;5048244;28;20021;-70
2022/04/19 14:34:00;;;;;;;3.22;2.15;;;;;;;;;;5054106;28;20101;-71
2022/04/19 14:36:26;;;;;;;2.33;2.08;;;;;;;;;;5047136;28;20025;-70
2022/04/19 14:38:52;;;;;;;3.78;2.60;;;;;;;;;;5050343;28;20459;-70
2022/04/19 14:41:21;;;;;;;2.90;1.83;;;;;;;;;;5047162;28;20079;-70
2022/04/19 14:43:47;;;;;;;3.60;2.47;;;;;;;;;;5047125;28;20070;-70
2022/04/19 14:46:14;;;;;;;2.65;2.05;;;;;;;;;;5049549;28;20029;-71
2022/04/19 14:48:40;;;;;;;2.88;2.10;;;;;;;;;;5032791;28;20021;-71
2022/04/19 14:53:52;;;;;;;4.22;2.30;;;;;;;;;;5050462;28;20541;-70
2022/04/19 14:56:21;;;;;;;3.53;1.65;;;;;;;;;;5048186;28;20047;-71
2022/04/19 14:58:47;;;;;;;4.45;3.00;;;;;;;;;;5048495;28;20373;-70
2022/04/19 15:01:14;;;;;;;4.38;2.55;;;;;;;;;;5028311;28;20498;-71
2022/04/19 15:03:41;;;;;;;4.15;2.05;;;;;;;;;;5057158;28;20027;-70
2022/04/19 15:06:07;;;;;;;3.20;2.20;;;;;;;;;;5045162;28;20100;-72
2022/04/19 15:08:33;;;;;;;4.40;1.85;;;;;;;;;;5047786;28;20474;-70
2022/04/19 15:10:59;;;;;;;3.03;1.98;;;;;;;;;;5046823;28;20080;-71
2022/04/19 15:13:25;;;;;;;2.00;1.80;;;;;;;;;;5050484;28;20470;-71
2022/04/19 15:15:51;;;;;;;3.88;1.80;;;;;;;;;;5049986;28;20028;-71
2022/04/19 15:18:18;;;;;;;2.80;1.90;;;;;;;;;;5042788;28;20033;-71
2022/04/19 15:20:44;;;;;;;2.25;1.45;;;;;;;;;;5050582;28;20075;-71
2022/04/19 15:23:10;;;;;;;4.80;2.05;;;;;;;;;;5046498;28;20040;-71
2022/04/19 15:25:36;;;;;;;2.33;1.25;;;;;;;;;;5047086;28;20021;-71
2022/04/19 15:28:04;;;;;;;3.78;2.00;;;;;;;;;;5049714;28;20033;-71
2022/04/19 15:30:31;;;;;;;4.47;1.80;;;;;;;;;;5046510;28;20051;-70
2022/04/19 15:32:57;;;;;;;5.90;2.03;;;;;;;;;;5032632;28;20025;-70
2022/04/19 15:35:24;;;;;;;2.55;1.90;;;;;;;;;;5032171;28;20520;-70
2022/04/19 15:37:53;;;;;;;2.58;1.83;;;;;;;;;;5049735;28;20020;-71
2022/04/19 15:40:19;;;;;;;2.92;1.60;;;;;;;;;;5057477;28;20020;-67
2022/04/19 15:42:45;;;;;;;2.20;1.67;;;;;;;;;;5030955;28;20048;-66
2022/04/19 15:45:11;;;;;;;12.23;1.77;;;;;;;;;;5049740;28;20131;-66
2022/04/19 15:47:43;;;;;;;3.25;1.70;;;;;;;;;;5047085;28;20044;-66
2022/04/19 15:50:09;;;;;;;3.22;1.58;;;;;;;;;;5040897;28;20486;-67
2022/04/19 15:52:35;;;;;;;2.95;1.50;;;;;;;;;;5045003;28;20051;-66
2022/04/19 15:55:01;;;;;;;3.72;1.73;;;;;;;;;;5042167;28;20079;-66
2022/04/19 15:57:27;;;;;;;3.15;1.90;;;;;;;;;;5048388;28;20540;-66
2022/04/19 15:59:53;;;;;;;2.90;1.80;;;;;;;;;;5042789;28;20029;-66
2022/04/19 16:02:21;;;;;;;4.88;1.98;;;;;;;;;;5042067;28;20036;-67
2022/04/19 16:04:47;;;;;;;2.65;1.58;;;;;;;;;;5049185;28;20378;-66
2022/04/19 16:07:13;;;;;;;5.72;1.88;;;;;;;;;;5040363;28;20032;-66
2022/04/19 16:09:39;;;;;;;2.38;1.77;;;;;;;;;;5049144;28;20043;-67
2022/04/19 16:12:06;;;;;;;4.13;2.35;;;;;;;;;;5047641;28;20024;-67
2022/04/19 16:14:32;;;;;;;3.97;1.60;;;;;;;;;;5047825;28;20230;-67
2022/04/19 16:25:11;;;;;;;2.30;1.55;;;;;;;;;;5045775;28;20056;-66
2022/04/19 16:27:37;;;;;;;5.95;1.73;;;;;;;;;;5039464;28;20601;-66
2022/04/19 16:30:04;;;;;;;1.85;1.55;;;;;;;;;;5041565;28;20025;-65
2022/04/19 16:32:32;;;;;;;3.17;1.88;;;;;;;;;;5042786;28;20083;-66
2022/04/19 16:34:58;;;;;;;3.35;1.48;;;;;;;;;;5045286;28;20037;-66
2022/04/19 16:37:24;;;;;;;3.28;1.48;;;;;;;;;;5045235;28;20022;-66
2022/04/19 16:39:50;;;;;;;2.30;1.40;;;;;;;;;;5045770;28;20013;-66
2022/04/19 16:42:16;;;;;;;2.30;1.50;;;;;;;;;;5043058;28;20493;-66
2022/04/19 16:44:43;;;;;;;2.45;1.50;;;;;;;;;;5049016;28;20021;-67
2022/04/19 16:47:09;;;;;;;3.90;1.98;;;;;;;;;;5047765;28;20109;-66
2022/04/19 16:49:35;;;;;;;2.03;1.70;;;;;;;;;;5045060;28;20021;-66
2022/04/19 16:52:01;;;;;;;2.78;1.77;;;;;;;;;;5044484;28;20025;-66
2022/04/19 16:54:29;;;;;;;2.25;1.60;;;;;;;;;;5047644;28;20037;-66
2022/04/19 16:56:55;;;;;;;3.28;1.80;;;;;;;;;;5040297;28;20466;-66
2022/04/19 16:59:22;;;;;;;3.63;2.28;;;;;;;;;;5048173;28;20093;-67
2022/04/19 17:11:40;;;;;;;2.83;1.70;;;;;;;;;;5052677;28;20017;-66
2022/04/19 17:14:08;;;;;;;6.65;1.90;;;;;;;;;;5043589;28;20040;-66
2022/04/19 17:16:34;;;;;;;3.88;1.95;;;;;;;;;;5031642;28;20394;-66
2022/04/19 17:19:00;;;;;;;2.95;1.77;;;;;;;;;;5027119;28;20104;-66
2022/04/19 17:21:32;;;;;;;5.00;2.53;;;;;;;;;;5028896;28;20013;-67
2022/04/19 17:23:59;;;;;;;4.93;2.20;;;;;;;;;;5045858;28;20039;-66
2022/04/19 17:26:30;;;;;;;3.72;2.13;;;;;;;;;;5020642;28;20492;-67
2022/04/19 17:28:56;;;;;;;4.18;1.92;;;;;;;;;;5034988;28;20059;-66
2022/04/19 17:31:23;;;;;;;4.10;2.00;;;;;;;;;;5057316;28;20021;-66
2022/04/19 17:33:50;;;;;;;2.90;1.75;;;;;;;;;;5055418;28;20036;-66
2022/04/19 17:36:16;;;;;;;6.20;2.00;;;;;;;;;;5055345;28;20390;-66
2022/04/19 17:38:43;;;;;;;3.58;2.03;;;;;;;;;;5059016;28;20029;-67
2022/04/19 17:41:19;;;;;;;3.00;1.80;;;;;;;;;;5040686;28;20371;-66
2022/04/19 17:59:24;;;;;;;3.97;1.95;;;;;;;;;;5055837;28;20017;-67
2022/04/19 18:01:50;;;;;;;2.58;1.55;;;;;;;;;;5032663;28;20041;-67
2022/04/19 18:13:37;;;;;;;8.15;2.05;;;;;;;;;;5054808;28;20016;-67
2022/04/19 18:16:03;;;;;;;2.47;1.80;;;;;;;;;;5057191;28;20508;-67
2022/04/19 18:18:31;;;;;;;9.18;2.00;;;;;;;;;;5031679;28;20036;-66
2022/04/19 18:20:57;;;;;;;4.43;1.90;;;;;;;;;;5033776;28;20041;-66
2022/04/19 18:26:08;;;;;;;2.08;1.70;;;;;;;;;;5050170;28;20497;-66
2022/04/19 18:28:35;;;;;;;3.13;1.80;;;;;;;;;;5049444;28;20029;-65
2022/04/19 18:31:04;;;;;;;7.10;2.03;;;;;;;;;;5049724;28;20036;-64
2022/04/19 18:33:31;;;;;;;8.02;2.13;;;;;;;;;;5049878;28;20029;-64
2022/04/19 18:35:57;;;;;;;3.45;1.73;;;;;;;;;;5045328;28;20021;-65
2022/04/19 18:38:24;;;;;;;6.28;1.98;;;;;;;;;;5038443;28;20386;-64
2022/04/19 18:40:50;;;;;;;2.22;1.45;;;;;;;;;;5046179;28;20031;-64
2022/04/19 18:43:17;;;;;;;4.63;1.80;;;;;;;;;;5053162;28;20025;-64
2022/04/19 18:45:43;;;;;;;6.65;1.75;;;;;;;;;;5029979;28;20029;-65
2022/04/19 18:48:09;;;;;;;1.98;1.35;;;;;;;;;;5049757;28;20025;-64
2022/04/19 18:50:35;;;;;;;3.55;1.38;;;;;;;;;;5054463;28;20024;-65
2022/04/19 18:53:01;;;;;;;2.17;1.60;;;;;;;;;;5035509;28;20025;-65
2022/04/19 18:55:28;;;;;;;8.25;1.80;;;;;;;;;;5049102;28;20037;-64
2022/04/19 18:57:54;;;;;;;4.07;1.70;;;;;;;;;;5033019;28;20059;-65
2022/04/19 19:00:21;;;;;;;5.32;1.80;;;;;;;;;;5049214;28;20059;-64
2022/04/19 19:02:48;;;;;;;4.05;1.65;;;;;;;;;;5053059;28;20043;-64
2022/04/19 19:05:14;;;;;;;3.15;1.55;;;;;;;;;;5041650;28;20017;-65
2022/04/19 19:07:40;;;;;;;1.63;1.30;;;;;;;;;;5051344;28;20036;-64
2022/04/19 19:10:07;;;;;;;1.77;1.20;;;;;;;;;;5050495;28;20386;-65
2022/04/19 19:12:33;;;;;;;1.70;1.33;;;;;;;;;;5045357;28;20363;-65
2022/04/19 19:15:00;;;;;;;3.13;1.80;;;;;;;;;;5046689;28;20053;-65
2022/04/19 19:17:26;;;;;;;5.88;1.60;;;;;;;;;;5051952;28;20324;-64
2022/04/19 19:19:52;;;;;;;2.40;1.50;;;;;;;;;;5054081;28;20484;-64
2022/04/19 19:22:18;;;;;;;5.05;1.48;;;;;;;;;;5045898;28;20026;-64
2022/04/19 19:24:44;;;;;;;3.20;1.73;;;;;;;;;;5046126;28;20531;-65
2022/04/19 19:27:10;;;;;;;5.47;1.52;;;;;;;;;;5028563;28;20026;-65
2022/04/19 19:29:36;;;;;;;1.75;1.35;;;;;;;;;;5051295;28;20037;-64
2022/04/19 19:32:03;;;;;;;1.88;1.40;;;;;;;;;;5045842;28;20029;-66
2022/04/19 19:34:30;;;;;;;1.60;1.23;;;;;;;;;;5048342;28;20120;-65
2022/04/19 19:36:56;;;;;;;4.65;1.63;;;;;;;;;;5050061;28;20194;-65
2022/04/19 19:39:22;;;;;;;2.17;1.90;;;;;;;;;;5023835;28;20025;-65
2022/04/19 19:41:49;;;;;;;8.82;2.80;;;;;;;;;;5045614;28;20032;-65
2022/04/19 19:44:15;;;;;;;2.28;1.48;;;;;;;;;;5046094;28;20067;-65
2022/04/19 19:46:41;;;;;;;2.03;1.70;;;;;;;;;;5050054;28;20151;-65
2022/04/19 19:49:07;;;;;;;2.38;1.77;;;;;;;;;;5047486;28;20079;-66
2022/04/19 19:51:33;;;;;;;8.95;2.38;;;;;;;;;;5048945;28;20021;-64
2022/04/19 19:53:59;;;;;;;2.15;1.45;;;;;;;;;;5053879;28;20037;-64
2022/04/19 19:56:26;;;;;;;4.40;2.13;;;;;;;;;;5047141;28;20090;-65
2022/04/19 19:58:54;;;;;;;6.40;1.63;;;;;;;;;;5030891;28;20135;-65
2022/04/19 20:01:22;;;;;;;5.75;2.00;;;;;;;;;;5029876;28;20364;-65
2022/04/19 20:03:48;;;;;;;4.35;2.45;;;;;;;;;;5042373;28;20505;-64
2022/04/19 20:06:14;;;;;;;4.72;1.92;;;;;;;;;;5048902;28;20311;-65
2022/04/19 20:08:40;;;;;;;7.57;2.15;;;;;;;;;;5043653;28;20025;-65
2022/04/19 20:11:06;;;;;;;7.82;2.03;;;;;;;;;;5027016;28;20120;-65
2022/04/19 20:13:32;;;;;;;2.80;2.17;;;;;;;;;;5044315;28;20043;-64
2022/04/19 20:15:58;;;;;;;4.00;2.42;;;;;;;;;;5054688;28;20037;-64
2022/04/19 20:18:24;;;;;;;3.90;2.20;;;;;;;;;;5052647;28;20025;-65